Time;durP1;ratioP1;P1;durP2;ratioP2;P2;SDS_P1;SDS_P2;PMS_P1;PMS_P2;Temp;Humidity;BMP_temperature;BMP_pressure;BME280_temperature;BME280_humidity;BME280_pressure;Samples;Min_cycle;Max_cycle;Signal;HPM_P1;HPM_P2
2020/12/08 00:06:26;;;;;;;14.83;8.43;;;3.40;88.80;;;;;;4994430;28;20045;-89
2020/12/08 00:09:52;;;;;;;15.13;8.30;;;3.40;89.00;;;;;;4995018;28;20116;-85
2020/12/08 00:12:28;;;;;;;15.37;8.47;;;3.40;88.80;;;;;;4997711;28;20033;-86
2020/12/08 00:15:28;;;;;;;15.80;9.00;;;3.40;88.70;;;;;;5012999;28;20041;-87
2020/12/08 00:17:54;;;;;;;16.70;8.40;;;3.40;89.00;;;;;;4996980;28;20026;-84
2020/12/08 00:20:21;;;;;;;15.37;8.63;;;3.50;89.00;;;;;;5014893;28;20037;-85
2020/12/08 00:22:46;;;;;;;17.93;9.00;;;3.40;88.40;;;;;;5052678;28;20029;-88
2020/12/08 00:25:13;;;;;;;16.00;9.03;;;3.40;89.00;;;;;;5052583;28;20367;-87
2020/12/08 00:27:42;;;;;;;17.00;8.33;;;3.40;88.90;;;;;;5052058;28;20047;-85
2020/12/08 00:30:10;;;;;;;14.80;8.73;;;3.40;88.90;;;;;;5051645;28;20428;-87
2020/12/08 00:32:39;;;;;;;15.80;8.97;;;3.40;88.80;;;;;;5051774;28;20029;-87
2020/12/08 00:35:06;;;;;;;14.77;9.07;;;3.30;88.80;;;;;;5052346;28;20461;-87
2020/12/08 00:37:31;;;;;;;15.00;8.70;;;3.30;89.40;;;;;;5051877;28;20025;-87
2020/12/08 00:39:57;;;;;;;14.90;8.33;;;3.20;89.80;;;;;;5051998;28;20052;-87
2020/12/08 00:42:23;;;;;;;14.43;8.13;;;3.20;89.80;;;;;;5051784;28;20386;-87
2020/12/08 00:44:48;;;;;;;17.97;8.57;;;3.20;89.70;;;;;;5053032;28;20112;-87
2020/12/08 00:47:52;;;;;;;15.43;9.13;;;3.20;89.80;;;;;;5051091;28;20036;-86
2020/12/08 00:50:18;;;;;;;16.33;8.33;;;3.10;89.60;;;;;;4994203;28;20085;-87
2020/12/08 00:52:43;;;;;;;18.80;8.77;;;3.10;89.60;;;;;;5044848;28;20457;-87
2020/12/08 00:55:09;;;;;;;14.10;8.20;;;3.10;89.80;;;;;;5053213;28;20021;-87
2020/12/08 00:57:35;;;;;;;16.03;8.30;;;3.10;89.80;;;;;;5051458;28;20032;-87
2020/12/08 01:00:01;;;;;;;14.37;7.87;;;3.10;89.00;;;;;;5050945;28;20446;-87
2020/12/08 01:02:26;;;;;;;14.93;8.00;;;3.00;89.50;;;;;;5051677;28;20548;-87
2020/12/08 01:04:52;;;;;;;14.13;8.00;;;3.00;89.30;;;;;;5053020;28;20025;-87
2020/12/08 01:07:18;;;;;;;14.90;8.23;;;2.90;89.60;;;;;;5053050;28;20486;-87
2020/12/08 01:09:44;;;;;;;15.83;8.67;;;2.90;89.80;;;;;;5051929;28;20115;-87
2020/12/08 01:12:09;;;;;;;17.43;8.33;;;2.90;89.30;;;;;;5051468;28;20083;-87
2020/12/08 01:14:35;;;;;;;16.03;8.43;;;2.90;89.50;;;;;;5051222;28;20381;-87
2020/12/08 01:17:02;;;;;;;14.53;8.73;;;2.90;89.40;;;;;;5051153;28;20028;-87
2020/12/08 01:19:28;;;;;;;14.53;8.23;;;2.80;89.40;;;;;;5050624;28;20071;-87
2020/12/08 01:21:55;;;;;;;16.37;8.50;;;2.80;89.00;;;;;;5052249;28;20020;-87
2020/12/08 01:24:21;;;;;;;14.10;8.20;;;3.00;88.70;;;;;;5052450;28;20072;-87
2020/12/08 01:26:46;;;;;;;15.00;8.27;;;2.90;88.50;;;;;;5051083;28;20033;-87
2020/12/08 01:29:15;;;;;;;16.40;8.67;;;2.90;89.10;;;;;;5050591;28;20392;-87
2020/12/08 01:31:41;;;;;;;15.00;8.35;;;2.80;89.00;;;;;;5051010;28;20036;-87
2020/12/08 01:34:09;;;;;;;15.87;8.60;;;2.80;89.30;;;;;;5052205;28;20219;-87
2020/12/08 01:36:35;;;;;;;16.98;8.98;;;2.80;89.30;;;;;;5052335;28;20059;-87
2020/12/08 01:39:01;;;;;;;16.07;8.40;;;2.80;88.90;;;;;;5050422;28;20077;-87
2020/12/08 01:41:26;;;;;;;14.47;8.37;;;2.80;89.10;;;;;;5051460;28;20504;-87
2020/12/08 01:43:59;;;;;;;18.00;9.20;;;2.90;88.80;;;;;;5052071;28;20040;-87
2020/12/08 01:46:26;;;;;;;16.03;8.80;;;2.90;89.10;;;;;;5050689;28;20478;-87
2020/12/08 01:48:53;;;;;;;15.57;8.57;;;2.80;89.10;;;;;;5050392;28;20029;-87
2020/12/08 01:51:21;;;;;;;15.00;8.80;;;2.80;89.00;;;;;;5051862;28;20029;-87
2020/12/08 01:53:48;;;;;;;17.53;9.60;;;2.90;89.00;;;;;;5050488;28;20492;-87
2020/12/08 01:56:15;;;;;;;16.23;8.90;;;2.90;89.20;;;;;;5051866;28;20037;-87
2020/12/08 01:58:41;;;;;;;15.30;8.93;;;3.00;89.00;;;;;;5050215;28;20117;-87
2020/12/08 02:01:14;;;;;;;16.17;9.37;;;3.00;89.30;;;;;;5051804;28;20025;-87
2020/12/08 02:03:42;;;;;;;14.43;9.03;;;3.00;89.00;;;;;;5052302;28;20036;-87
2020/12/08 02:06:08;;;;;;;15.53;9.43;;;3.00;89.10;;;;;;5050444;28;20040;-86
2020/12/08 02:08:36;;;;;;;18.43;9.90;;;3.10;89.20;;;;;;5050382;28;20098;-87
2020/12/08 02:11:03;;;;;;;17.13;10.13;;;3.10;89.40;;;;;;5051178;28;20028;-87
2020/12/08 02:13:29;;;;;;;19.63;10.70;;;3.10;89.10;;;;;;5050440;28;20083;-87
2020/12/08 02:16:01;;;;;;;19.63;10.70;;;3.10;89.20;;;;;;5051719;28;20029;-87
2020/12/08 02:18:26;;;;;;;22.07;11.97;;;3.20;89.10;;;;;;5051773;28;20055;-87
2020/12/08 02:20:56;;;;;;;19.83;11.20;;;3.20;89.10;;;;;;5051036;28;20025;-87
2020/12/08 02:23:22;;;;;;;20.07;11.53;;;3.20;89.20;;;;;;5050374;28;20082;-87
2020/12/08 02:25:59;;;;;;;22.83;12.00;;;3.30;89.40;;;;;;5051691;28;20037;-87
2020/12/08 02:28:25;;;;;;;24.70;12.63;;;3.30;89.40;;;;;;5050159;28;20036;-86
2020/12/08 02:30:51;;;;;;;21.57;12.07;;;3.30;89.30;;;;;;5051020;28;20036;-87
2020/12/08 02:33:17;;;;;;;18.67;11.20;;;3.30;89.00;;;;;;5049795;28;20033;-87
2020/12/08 02:35:43;;;;;;;20.97;11.77;;;3.30;89.10;;;;;;5050223;28;20033;-87
2020/12/08 02:38:08;;;;;;;20.80;11.83;;;3.20;89.70;;;;;;5050329;28;20087;-87
2020/12/08 02:40:34;;;;;;;20.67;12.20;;;3.20;89.40;;;;;;5050938;28;20036;-87
2020/12/08 02:42:59;;;;;;;22.00;12.03;;;3.30;89.20;;;;;;5050069;28;20025;-87
2020/12/08 02:45:25;;;;;;;20.67;12.20;;;3.30;89.50;;;;;;5051490;28;20056;-87
2020/12/08 02:47:50;;;;;;;22.67;12.70;;;3.30;90.00;;;;;;5050150;28;20478;-89
2020/12/08 02:50:16;;;;;;;19.87;12.27;;;3.30;89.50;;;;;;5049736;28;20029;-89
2020/12/08 02:52:42;;;;;;;22.13;11.40;;;3.30;89.50;;;;;;5052393;28;20025;-88
2020/12/08 02:55:07;;;;;;;22.27;12.53;;;3.30;89.80;;;;;;5053964;28;20386;-88
2020/12/08 02:57:33;;;;;;;21.57;13.10;;;3.20;90.20;;;;;;5053888;28;20474;-88
2020/12/08 02:59:59;;;;;;;20.30;12.17;;;3.20;90.00;;;;;;5054717;28;20024;-89
2020/12/08 03:02:25;;;;;;;22.07;12.30;;;3.30;90.20;;;;;;5054010;28;20029;-88
2020/12/08 03:04:51;;;;;;;21.93;12.50;;;3.30;90.20;;;;;;5054973;28;20100;-88
2020/12/08 03:07:16;;;;;;;23.70;12.73;;;3.30;90.10;;;;;;5053766;28;20118;-89
2020/12/08 03:09:42;;;;;;;20.90;12.53;;;3.30;90.00;;;;;;5053846;28;20024;-87
2020/12/08 03:12:12;;;;;;;21.43;12.63;;;3.40;90.00;;;;;;5052562;28;20124;-89
2020/12/08 03:14:37;;;;;;;22.03;12.40;;;3.40;89.70;;;;;;5053707;28;20032;-88
2020/12/08 03:17:04;;;;;;;20.17;11.43;;;3.40;89.50;;;;;;5054852;28;20436;-89
2020/12/08 03:19:30;;;;;;;19.90;11.43;;;3.50;89.30;;;;;;5052844;28;20397;-89
2020/12/08 03:21:56;;;;;;;19.60;11.53;;;3.40;88.90;;;;;;5053542;28;20033;-88
2020/12/08 03:24:21;;;;;;;20.77;11.93;;;3.40;88.70;;;;;;5054754;28;20394;-88
2020/12/08 03:26:47;;;;;;;19.63;11.47;;;3.40;88.60;;;;;;5053297;28;20473;-89
2020/12/08 03:29:12;;;;;;;19.57;11.67;;;3.40;88.60;;;;;;5052971;28;20546;-89
2020/12/08 03:31:38;;;;;;;20.50;11.60;;;3.50;88.70;;;;;;5053521;28;20035;-89
2020/12/08 03:34:04;;;;;;;18.93;11.90;;;3.50;88.30;;;;;;5053149;28;20053;-87
2020/12/08 03:36:30;;;;;;;21.03;12.23;;;3.40;88.20;;;;;;5053139;28;20029;-88
2020/12/08 03:38:58;;;;;;;20.70;11.27;;;3.30;88.80;;;;;;5052534;28;20543;-89
2020/12/08 03:41:24;;;;;;;19.67;11.50;;;3.30;89.40;;;;;;5053063;28;20119;-88
2020/12/08 03:43:51;;;;;;;20.40;12.20;;;3.20;89.20;;;;;;5054410;28;20104;-89
2020/12/08 03:46:22;;;;;;;21.67;12.33;;;3.20;89.40;;;;;;5053056;28;20035;-89
2020/12/08 03:48:48;;;;;;;21.50;12.23;;;3.20;89.30;;;;;;5052747;28;20043;-89
2020/12/08 03:51:15;;;;;;;19.57;11.37;;;3.30;89.30;;;;;;5054161;28;20024;-89
2020/12/08 03:53:41;;;;;;;20.87;11.60;;;3.40;88.90;;;;;;5052933;28;20397;-89
2020/12/08 03:56:18;;;;;;;22.70;13.20;;;3.40;88.70;;;;;;5052998;28;20469;-89
2020/12/08 03:58:47;;;;;;;22.23;12.17;;;3.30;89.00;;;;;;5052828;28;20040;-89
2020/12/08 04:01:18;;;;;;;22.30;12.73;;;3.20;88.70;;;;;;5052475;28;20119;-88
2020/12/08 04:03:45;;;;;;;22.43;12.70;;;3.20;89.40;;;;;;5053402;28;20028;-89
2020/12/08 04:06:13;;;;;;;29.13;15.90;;;3.10;89.70;;;;;;5052821;28;20211;-89
2020/12/08 04:08:42;;;;;;;22.67;13.03;;;3.10;89.80;;;;;;5053941;28;20043;-89
2020/12/08 04:11:12;;;;;;;24.67;13.25;;;3.10;89.90;;;;;;5053046;28;20115;-89
2020/12/08 04:13:38;;;;;;;20.87;11.87;;;3.10;89.80;;;;;;5052542;28;20053;-89
2020/12/08 04:16:04;;;;;;;21.97;12.17;;;3.00;89.70;;;;;;5052637;28;20056;-89
2020/12/08 04:18:30;;;;;;;21.03;11.87;;;3.00;89.90;;;;;;5052345;28;20122;-89
2020/12/08 04:20:56;;;;;;;21.23;12.13;;;3.00;90.10;;;;;;5053041;28;20029;-88
2020/12/08 04:23:23;;;;;;;23.07;12.07;;;3.00;90.00;;;;;;5052247;28;20056;-88
2020/12/08 04:25:50;;;;;;;23.30;12.53;;;2.90;90.40;;;;;;5053638;28;20024;-89
2020/12/08 04:28:16;;;;;;;26.63;13.90;;;2.90;90.20;;;;;;5053280;28;20053;-89
2020/12/08 04:30:41;;;;;;;22.87;12.60;;;2.90;90.40;;;;;;5052962;28;20068;-87
2020/12/08 04:33:07;;;;;;;24.43;12.20;;;3.00;90.40;;;;;;5053243;28;20039;-89
2020/12/08 04:35:33;;;;;;;21.80;12.57;;;3.00;90.30;;;;;;5053905;28;20056;-86
2020/12/08 04:37:59;;;;;;;23.00;12.70;;;3.00;90.20;;;;;;5053163;28;20094;-89
2020/12/08 04:40:25;;;;;;;22.90;12.60;;;3.10;90.40;;;;;;5051508;28;20029;-89
2020/12/08 04:42:55;;;;;;;24.87;13.23;;;3.00;90.20;;;;;;5053019;28;20025;-89
2020/12/08 04:45:21;;;;;;;;;;;3.10;90.10;;;;;;5053608;28;20035;-89
2020/12/08 04:47:47;;;;;;;21.47;12.37;;;3.00;90.30;;;;;;5051810;28;19912;-89
2020/12/08 04:50:15;;;;;;;22.17;13.27;;;3.00;90.40;;;;;;5051350;28;20104;-89
2020/12/08 04:52:42;;;;;;;22.70;11.67;;;3.00;90.60;;;;;;5051791;28;20029;-90
2020/12/08 04:55:08;;;;;;;22.67;11.83;;;3.10;90.30;;;;;;5051515;28;20029;-89
2020/12/08 04:57:34;;;;;;;23.70;12.97;;;3.10;90.50;;;;;;5051588;28;20029;-88
2020/12/08 05:00:09;;;;;;;21.90;12.30;;;3.20;90.10;;;;;;5051175;28;20036;-88
2020/12/08 05:02:51;;;;;;;21.90;13.03;;;3.20;90.30;;;;;;5051397;28;20031;-88
2020/12/08 05:05:18;;;;;;;22.53;12.90;;;3.30;90.10;;;;;;5051660;28;20025;-88
2020/12/08 05:07:45;;;;;;;24.27;13.47;;;3.30;90.20;;;;;;5051247;28;20029;-87
2020/12/08 05:10:12;;;;;;;23.90;13.47;;;3.30;90.30;;;;;;5050946;28;20021;-89
2020/12/08 05:12:38;;;;;;;23.80;12.73;;;3.30;90.30;;;;;;5051411;28;20048;-89
2020/12/08 05:15:04;;;;;;;23.40;13.83;;;3.30;90.30;;;;;;5051010;28;20110;-89
2020/12/08 05:17:31;;;;;;;22.17;12.80;;;3.20;90.30;;;;;;5050955;28;20027;-89
2020/12/08 05:20:14;;;;;;;22.77;13.17;;;3.20;90.60;;;;;;5052117;28;20017;-88
2020/12/08 05:22:57;;;;;;;24.10;13.17;;;3.20;90.60;;;;;;5051226;28;20098;-89
2020/12/08 05:25:26;;;;;;;24.63;13.80;;;3.20;90.60;;;;;;5052544;28;20029;-88
2020/12/08 05:27:55;;;;;;;26.23;14.40;;;3.20;90.60;;;;;;5051913;28;20021;-89
2020/12/08 05:30:21;;;;;;;23.60;13.97;;;3.30;90.60;;;;;;5054498;28;20401;-87
2020/12/08 05:32:48;;;;;;;28.03;14.67;;;3.30;90.60;;;;;;5079789;22;20029;-83
2020/12/08 05:35:19;;;;;;;23.50;13.97;;;3.30;90.40;;;;;;5077502;28;20460;-82
2020/12/08 05:37:46;;;;;;;24.93;13.57;;;3.40;90.40;;;;;;5059142;28;20027;-82
2020/12/08 05:40:24;;;;;;;23.07;14.10;;;3.40;90.30;;;;;;5077233;28;20027;-82
2020/12/08 05:42:51;;;;;;;24.70;14.57;;;3.50;90.20;;;;;;5058822;28;20056;-82
2020/12/08 05:45:22;;;;;;;25.27;14.17;;;3.50;90.30;;;;;;5077177;28;20472;-82
2020/12/08 05:47:53;;;;;;;25.50;14.27;;;3.50;90.40;;;;;;5077298;28;20021;-82
2020/12/08 05:50:21;;;;;;;24.50;14.80;;;3.50;90.40;;;;;;5075975;28;20028;-83
2020/12/08 05:52:52;;;;;;;25.23;14.17;;;3.40;90.50;;;;;;5076894;28;20020;-82
2020/12/08 05:55:20;;;;;;;30.43;16.97;;;3.40;90.60;;;;;;5076261;28;20029;-82
2020/12/08 05:57:46;;;;;;;26.37;14.87;;;3.40;90.80;;;;;;5058996;28;20033;-82
2020/12/08 06:00:24;;;;;;;25.67;14.43;;;3.50;90.60;;;;;;5076335;28;20021;-83
2020/12/08 06:02:51;;;;;;;24.80;14.83;;;3.50;90.70;;;;;;5076186;28;20580;-82
2020/12/08 06:05:25;;;;;;;24.43;13.93;;;3.50;90.40;;;;;;5075952;28;20031;-82
2020/12/08 06:07:51;;;;;;;23.87;13.70;;;3.60;90.50;;;;;;5057821;28;20102;-82
2020/12/08 06:10:17;;;;;;;26.93;14.97;;;3.60;90.50;;;;;;5075463;28;20020;-82
2020/12/08 06:12:42;;;;;;;25.63;14.50;;;3.60;90.50;;;;;;5058628;28;20358;-82
2020/12/08 06:15:38;;;;;;;23.53;13.93;;;3.60;90.40;;;;;;5059061;28;20071;-82
2020/12/08 06:18:04;;;;;;;24.77;14.33;;;3.60;90.60;;;;;;5076465;28;20024;-82
2020/12/08 06:20:29;;;;;;;27.37;15.43;;;3.50;90.70;;;;;;5057879;28;20075;-82
2020/12/08 06:22:58;;;;;;;27.27;15.37;;;3.60;90.90;;;;;;5058364;28;20392;-82
2020/12/08 06:25:25;;;;;;;25.80;14.50;;;3.50;91.00;;;;;;5076417;28;20028;-82
2020/12/08 06:27:50;;;;;;;27.13;14.93;;;3.60;90.90;;;;;;5078464;28;20377;-82
2020/12/08 06:30:21;;;;;;;24.97;14.50;;;3.60;90.90;;;;;;5061828;28;20078;-82
2020/12/08 06:32:47;;;;;;;26.20;14.93;;;3.60;90.90;;;;;;5062463;28;20028;-82
2020/12/08 06:35:14;;;;;;;24.60;14.47;;;3.50;91.00;;;;;;5062675;28;20497;-81
2020/12/08 06:37:46;;;;;;;25.70;14.80;;;3.50;91.10;;;;;;5062154;28;20056;-83
2020/12/08 06:40:18;;;;;;;25.20;14.87;;;3.60;91.20;;;;;;5079266;28;20388;-82
2020/12/08 06:42:45;;;;;;;26.70;15.47;;;3.60;91.20;;;;;;5062033;28;20033;-82
2020/12/08 06:45:13;;;;;;;28.10;15.77;;;3.60;91.30;;;;;;5079282;28;20029;-82
2020/12/08 06:47:40;;;;;;;27.27;15.63;;;3.60;91.20;;;;;;5061593;28;20074;-83
2020/12/08 06:50:07;;;;;;;27.40;16.13;;;3.60;91.30;;;;;;5079259;28;20031;-83
2020/12/08 06:52:34;;;;;;;26.43;15.20;;;3.60;91.20;;;;;;5062295;28;20031;-83
2020/12/08 06:55:01;;;;;;;27.07;16.00;;;3.60;91.40;;;;;;5079857;28;20023;-83
2020/12/08 06:57:27;;;;;;;27.13;15.90;;;3.60;91.40;;;;;;5061505;28;20078;-82
2020/12/08 07:00:07;;;;;;;25.87;15.07;;;3.60;91.20;;;;;;5061590;28;20032;-82
2020/12/08 07:02:41;;;;;;;29.50;16.80;;;3.60;91.30;;;;;;5061796;28;20044;-82
2020/12/08 07:05:07;;;;;;;30.00;15.50;;;3.60;91.30;;;;;;5078955;28;20021;-82
2020/12/08 07:07:33;;;;;;;26.03;15.57;;;3.60;91.40;;;;;;5061322;28;20078;-82
2020/12/08 07:09:59;;;;;;;28.40;16.20;;;3.60;91.40;;;;;;5060720;28;20428;-82
2020/12/08 07:12:25;;;;;;;28.07;15.70;;;3.60;91.60;;;;;;5078647;28;20078;-82
2020/12/08 07:14:59;;;;;;;24.87;15.07;;;3.60;91.60;;;;;;5078629;28;20429;-83
2020/12/08 07:17:29;;;;;;;26.67;15.20;;;3.60;91.30;;;;;;5060644;28;20036;-82
2020/12/08 07:19:55;;;;;;;30.53;16.60;;;3.60;91.60;;;;;;5061141;28;20074;-83
2020/12/08 07:22:21;;;;;;;27.23;14.57;;;3.70;91.40;;;;;;5078149;28;20481;-83
2020/12/08 07:24:47;;;;;;;28.77;16.07;;;3.70;91.10;;;;;;5077677;28;20052;-83
2020/12/08 07:27:13;;;;;;;29.20;15.13;;;3.70;91.10;;;;;;5077663;28;20090;-82
2020/12/08 07:29:42;;;;;;;26.33;14.80;;;3.70;91.20;;;;;;5059263;28;20025;-82
2020/12/08 07:32:07;;;;;;;25.05;14.15;;;3.70;91.10;;;;;;5059897;28;20044;-82
2020/12/08 07:34:33;;;;;;;27.07;15.60;;;3.70;91.00;;;;;;5059430;28;20036;-82
2020/12/08 07:36:58;;;;;;;25.60;14.43;;;3.80;91.20;;;;;;5059472;28;20025;-83
2020/12/08 07:39:29;;;;;;;26.90;14.97;;;3.70;91.40;;;;;;5076346;28;20025;-82
2020/12/08 07:42:04;;;;;;;25.40;14.90;;;3.80;91.30;;;;;;5059042;28;20400;-83
2020/12/08 07:44:30;;;;;;;26.50;14.50;;;3.80;91.30;;;;;;5058999;28;20423;-82
2020/12/08 07:46:56;;;;;;;30.47;15.03;;;3.80;91.30;;;;;;5077112;28;20036;-82
2020/12/08 07:49:22;;;;;;;28.67;16.47;;;3.80;91.30;;;;;;5058883;28;20028;-82
2020/12/08 07:51:49;;;;;;;26.70;14.80;;;3.80;91.40;;;;;;5059242;28;20024;-83
2020/12/08 07:54:15;;;;;;;28.07;15.40;;;3.80;91.40;;;;;;5059012;28;20020;-82
2020/12/08 07:56:41;;;;;;;27.67;14.93;;;3.80;91.50;;;;;;5077284;28;20028;-82
2020/12/08 07:59:07;;;;;;;29.83;15.27;;;3.90;91.50;;;;;;5058845;28;20043;-82
2020/12/08 08:01:43;;;;;;;29.37;15.43;;;3.90;91.50;;;;;;5059135;28;20032;-83
2020/12/08 08:04:09;;;;;;;28.40;16.30;;;3.90;91.40;;;;;;5076854;28;20121;-82
2020/12/08 08:06:35;;;;;;;28.17;14.83;;;4.00;91.30;;;;;;5058466;28;20520;-82
2020/12/08 08:09:05;;;;;;;27.93;15.00;;;4.00;91.40;;;;;;5058250;28;20421;-82
2020/12/08 08:11:31;;;;;;;27.53;15.43;;;4.00;91.00;;;;;;5058724;28;20017;-82
2020/12/08 08:13:57;;;;;;;29.23;14.80;;;4.00;91.00;;;;;;5058153;28;20025;-83
2020/12/08 08:16:23;;;;;;;28.67;15.33;;;4.00;90.90;;;;;;5058966;28;20074;-82
2020/12/08 08:18:48;;;;;;;29.00;15.10;;;4.00;90.90;;;;;;5058594;28;20388;-82
2020/12/08 08:21:14;;;;;;;26.13;14.50;;;4.00;90.90;;;;;;5076081;28;20036;-83
2020/12/08 08:23:40;;;;;;;26.90;15.30;;;4.10;90.80;;;;;;5059888;28;20050;-82
2020/12/08 08:26:07;;;;;;;24.77;14.77;;;4.10;90.90;;;;;;5077860;28;20024;-82
2020/12/08 08:28:33;;;;;;;27.53;14.57;;;4.10;90.90;;;;;;5077783;28;20032;-81
2020/12/08 08:30:58;;;;;;;23.50;13.57;;;4.10;90.70;;;;;;5058951;28;20306;-82
2020/12/08 08:33:24;;;;;;;26.33;14.97;;;4.10;90.60;;;;;;5077140;28;20033;-82
2020/12/08 08:35:49;;;;;;;24.53;15.23;;;4.10;90.60;;;;;;5077052;28;20017;-82
2020/12/08 08:38:15;;;;;;;26.87;15.20;;;4.10;90.80;;;;;;5059069;28;20031;-82
2020/12/08 08:40:41;;;;;;;26.70;14.87;;;4.10;90.90;;;;;;5076149;28;20031;-82
2020/12/08 08:43:06;;;;;;;25.97;14.93;;;4.10;90.90;;;;;;5059056;28;20025;-82
2020/12/08 08:45:32;;;;;;;26.27;15.23;;;4.20;91.00;;;;;;5059180;28;20389;-82
2020/12/08 08:47:57;;;;;;;29.27;14.73;;;4.10;90.90;;;;;;5076698;28;20140;-82
2020/12/08 08:50:23;;;;;;;23.63;14.83;;;4.20;91.00;;;;;;5075670;28;20028;-82
2020/12/08 08:52:49;;;;;;;25.97;15.53;;;4.20;91.00;;;;;;5058087;28;20021;-82
2020/12/08 08:55:15;;;;;;;25.10;14.80;;;4.20;91.00;;;;;;5076581;28;20094;-82
2020/12/08 08:57:41;;;;;;;24.60;14.53;;;4.30;90.90;;;;;;5076585;28;20074;-82
2020/12/08 09:00:09;;;;;;;24.00;13.73;;;4.30;90.90;;;;;;5076544;28;20033;-82
2020/12/08 09:02:35;;;;;;;23.75;13.80;;;4.30;91.00;;;;;;5076109;28;20071;-83
2020/12/08 09:05:01;;;;;;;24.83;13.57;;;4.30;91.20;;;;;;5076725;28;20469;-83
2020/12/08 09:07:28;;;;;;;24.33;13.93;;;4.30;91.10;;;;;;5058720;28;20111;-83
2020/12/08 09:09:55;;;;;;;22.33;13.13;;;4.40;91.00;;;;;;5058160;28;20024;-83
2020/12/08 09:12:21;;;;;;;19.57;12.17;;;4.40;91.00;;;;;;5076609;28;20028;-82
2020/12/08 09:14:47;;;;;;;18.63;11.10;;;4.40;90.90;;;;;;5076051;28;20016;-82
2020/12/08 09:17:13;;;;;;;19.50;11.40;;;4.40;90.80;;;;;;5057841;28;20017;-82
2020/12/08 09:19:39;;;;;;;20.47;11.07;;;4.50;90.60;;;;;;5057686;28;20503;-82
2020/12/08 09:22:06;;;;;;;16.67;10.43;;;4.60;90.30;;;;;;5058167;28;20107;-82
2020/12/08 09:24:32;;;;;;;15.33;10.30;;;4.60;90.00;;;;;;5058726;28;20033;-82
2020/12/08 09:26:58;;;;;;;16.67;10.00;;;4.60;89.60;;;;;;5075999;28;20024;-82
2020/12/08 09:29:24;;;;;;;17.60;10.03;;;4.60;88.80;;;;;;5057649;28;20558;-82
2020/12/08 09:31:55;;;;;;;16.73;9.57;;;4.60;88.80;;;;;;5075558;28;20100;-83
2020/12/08 09:34:20;;;;;;;16.57;9.73;;;4.70;89.10;;;;;;5057414;28;20032;-83
2020/12/08 09:36:48;;;;;;;15.27;9.43;;;4.70;88.60;;;;;;5075617;28;20081;-82
2020/12/08 09:39:14;;;;;;;14.10;9.30;;;4.70;88.40;;;;;;5075528;28;20028;-82
2020/12/08 09:41:40;;;;;;;15.60;9.77;;;4.80;87.70;;;;;;5058134;28;20106;-82
2020/12/08 09:44:09;;;;;;;13.57;9.00;;;4.70;87.10;;;;;;5058374;28;20115;-82
2020/12/08 09:46:35;;;;;;;15.07;9.33;;;4.70;86.60;;;;;;5058106;28;20056;-82
2020/12/08 09:49:00;;;;;;;14.60;8.37;;;4.80;86.50;;;;;;5075074;28;20052;-82
2020/12/08 09:51:26;;;;;;;14.03;8.93;;;4.80;86.80;;;;;;5057536;28;20048;-82
2020/12/08 09:53:52;;;;;;;13.90;9.20;;;4.80;86.60;;;;;;5075656;28;20021;-82
2020/12/08 09:56:17;;;;;;;13.43;8.93;;;4.80;86.70;;;;;;5058247;28;20400;-82
2020/12/08 09:58:43;;;;;;;13.87;9.03;;;4.80;86.40;;;;;;5075430;28;20076;-82
2020/12/08 10:01:08;;;;;;;14.97;8.77;;;4.80;87.20;;;;;;5056827;28;20075;-82
2020/12/08 10:03:36;;;;;;;12.47;8.10;;;4.80;86.40;;;;;;5075127;28;20028;-83
2020/12/08 10:06:03;;;;;;;11.90;8.20;;;4.90;86.50;;;;;;5057639;28;20055;-82
2020/12/08 10:08:28;;;;;;;13.40;8.13;;;4.90;86.00;;;;;;5057965;28;20024;-83
2020/12/08 10:10:54;;;;;;;12.37;7.87;;;4.90;85.80;;;;;;5057140;28;20435;-82
2020/12/08 10:13:20;;;;;;;12.30;7.87;;;4.90;85.10;;;;;;5057405;28;20048;-81
2020/12/08 10:15:45;;;;;;;12.33;8.20;;;4.90;85.30;;;;;;5075244;28;20473;-82
2020/12/08 10:18:11;;;;;;;12.53;7.97;;;4.90;85.00;;;;;;5057257;28;20528;-82
2020/12/08 10:20:37;;;;;;;10.00;6.83;;;4.90;84.90;;;;;;5075208;28;20036;-83
2020/12/08 10:23:05;;;;;;;13.27;7.20;;;4.90;83.70;;;;;;5074982;28;20029;-82
2020/12/08 10:25:32;;;;;;;9.30;6.17;;;4.90;82.90;;;;;;5075656;28;20540;-82
2020/12/08 10:27:59;;;;;;;7.00;4.80;;;4.90;82.70;;;;;;5075284;28;20473;-83
2020/12/08 10:30:25;;;;;;;6.87;4.77;;;4.90;80.20;;;;;;5075092;28;20027;-83
2020/12/08 10:32:50;;;;;;;8.80;4.40;;;4.90;80.00;;;;;;5056771;28;20025;-82
2020/12/08 10:35:16;;;;;;;12.03;7.00;;;4.90;79.30;;;;;;5075813;28;20037;-82
2020/12/08 10:37:42;;;;;;;7.67;4.40;;;5.00;78.80;;;;;;5057642;28;20029;-82
2020/12/08 10:40:07;;;;;;;7.03;4.50;;;5.00;79.70;;;;;;5055706;28;20046;-83
2020/12/08 10:42:33;;;;;;;6.93;3.77;;;5.00;80.50;;;;;;5074227;28;20486;-83
2020/12/08 10:44:58;;;;;;;7.97;4.10;;;5.00;79.90;;;;;;5074315;28;20052;-83
2020/12/08 10:47:24;;;;;;;6.90;4.00;;;5.00;80.00;;;;;;5074121;28;20466;-82
2020/12/08 10:49:50;;;;;;;5.40;3.47;;;5.00;80.20;;;;;;5074238;28;20066;-83
2020/12/08 10:52:15;;;;;;;7.47;3.57;;;5.00;79.20;;;;;;5074837;28;20033;-83
2020/12/08 10:54:41;;;;;;;5.17;3.30;;;5.00;79.30;;;;;;5074422;28;20031;-83
2020/12/08 10:57:06;;;;;;;5.90;3.80;;;5.10;78.70;;;;;;5057121;28;20033;-83
2020/12/08 10:59:32;;;;;;;7.10;3.57;;;5.10;79.40;;;;;;5056888;28;20028;-82
2020/12/08 11:01:57;;;;;;;6.50;3.70;;;5.10;79.30;;;;;;5075071;28;20027;-82
2020/12/08 11:04:23;;;;;;;5.60;3.60;;;5.10;79.40;;;;;;5074396;28;20059;-82
2020/12/08 11:06:49;;;;;;;6.70;3.60;;;5.10;79.50;;;;;;5056362;28;20035;-82
2020/12/08 11:09:14;;;;;;;5.70;3.70;;;5.10;79.60;;;;;;5074450;28;20423;-83
2020/12/08 11:11:40;;;;;;;5.27;3.17;;;5.10;79.40;;;;;;5057084;28;20056;-83
2020/12/08 11:14:06;;;;;;;5.37;3.13;;;5.10;78.80;;;;;;5075506;28;20048;-82
2020/12/08 11:16:31;;;;;;;4.73;3.40;;;5.20;79.00;;;;;;5077895;28;20017;-82
2020/12/08 11:18:57;;;;;;;5.83;3.00;;;5.20;79.10;;;;;;5077149;28;20033;-83
2020/12/08 11:21:28;;;;;;;5.83;3.07;;;5.20;78.30;;;;;;5077330;28;20035;-82
2020/12/08 11:23:54;;;;;;;5.20;3.23;;;5.20;78.40;;;;;;5076949;28;20025;-82
2020/12/08 11:26:20;;;;;;;5.13;3.30;;;5.20;77.90;;;;;;5077682;28;20028;-83
2020/12/08 11:28:46;;;;;;;6.00;3.37;;;5.20;78.20;;;;;;5077344;28;20033;-82
2020/12/08 11:31:12;;;;;;;6.53;3.57;;;5.20;78.50;;;;;;5077262;28;20048;-83
2020/12/08 11:33:38;;;;;;;5.80;3.43;;;5.20;78.60;;;;;;5078040;28;20027;-83
2020/12/08 11:36:05;;;;;;;5.80;3.77;;;5.20;78.40;;;;;;5059825;28;20021;-83
2020/12/08 11:38:31;;;;;;;5.83;3.60;;;5.10;78.30;;;;;;5077444;28;20033;-83
2020/12/08 11:40:57;;;;;;;5.43;3.60;;;5.20;78.50;;;;;;5076579;28;20538;-83
2020/12/08 11:43:22;;;;;;;6.13;3.47;;;5.20;78.40;;;;;;5077456;28;20088;-83
2020/12/08 11:45:48;;;;;;;6.10;3.73;;;5.20;78.50;;;;;;5077320;28;20032;-82
2020/12/08 11:48:14;;;;;;;7.47;4.17;;;5.20;78.80;;;;;;5077340;28;20508;-82
2020/12/08 11:50:40;;;;;;;7.93;4.80;;;5.20;78.80;;;;;;5076289;28;20028;-83
2020/12/08 11:53:05;;;;;;;7.07;4.50;;;5.20;78.80;;;;;;5076893;28;20029;-83
2020/12/08 11:55:31;;;;;;;5.73;3.73;;;5.20;78.00;;;;;;5077103;28;20418;-83
2020/12/08 11:57:57;;;;;;;6.70;4.20;;;5.20;78.40;;;;;;5077223;28;20033;-83
2020/12/08 12:00:22;;;;;;;5.63;3.67;;;5.20;78.30;;;;;;5077134;28;20029;-83
2020/12/08 12:02:48;;;;;;;5.20;3.90;;;5.10;78.10;;;;;;5077677;28;20040;-83
2020/12/08 12:05:14;;;;;;;6.37;3.90;;;5.20;77.40;;;;;;5077026;28;20028;-83
2020/12/08 12:07:39;;;;;;;5.40;3.50;;;5.20;77.80;;;;;;5076902;28;20025;-83
2020/12/08 12:10:05;;;;;;;5.80;3.70;;;5.20;77.90;;;;;;5076347;28;20020;-83
2020/12/08 12:12:31;;;;;;;5.60;3.30;;;5.20;78.10;;;;;;5076866;28;20078;-83
2020/12/08 12:14:56;;;;;;;6.20;3.70;;;5.20;78.20;;;;;;5076391;28;20059;-82
2020/12/08 12:17:22;;;;;;;5.50;3.77;;;5.20;78.00;;;;;;5059116;28;20047;-82
2020/12/08 12:19:48;;;;;;;6.27;3.70;;;5.20;77.80;;;;;;5058415;28;20025;-82
2020/12/08 12:22:14;;;;;;;5.93;3.63;;;5.20;77.90;;;;;;5059186;28;20135;-82
2020/12/08 12:24:39;;;;;;;6.60;3.50;;;5.20;78.00;;;;;;5058784;28;20545;-82
2020/12/08 12:27:05;;;;;;;6.07;4.00;;;5.30;78.20;;;;;;5077009;28;20033;-83
2020/12/08 12:29:31;;;;;;;8.30;4.27;;;5.30;78.20;;;;;;5057977;28;20389;-83
2020/12/08 12:31:57;;;;;;;9.03;4.33;;;5.30;77.90;;;;;;5076217;28;20024;-82
2020/12/08 12:34:23;;;;;;;6.93;4.67;;;5.30;77.60;;;;;;5076567;28;20039;-83
2020/12/08 12:36:50;;;;;;;7.73;4.50;;;5.30;77.90;;;;;;5076649;28;20104;-83
2020/12/08 12:39:16;;;;;;;6.67;4.07;;;5.40;77.70;;;;;;5075353;28;20031;-82
2020/12/08 12:41:43;;;;;;;5.90;4.20;;;5.30;77.10;;;;;;5076246;28;20028;-83
2020/12/08 12:44:09;;;;;;;9.60;5.03;;;5.40;77.30;;;;;;5077030;28;20449;-83
2020/12/08 12:46:35;;;;;;;7.17;4.73;;;5.40;77.50;;;;;;5077043;28;20070;-82
2020/12/08 12:49:01;;;;;;;8.67;5.30;;;5.40;77.30;;;;;;5076279;28;20456;-83